Current | Forecast
Updated: 4:00 PM JST on June 27, 2017
Observed at Fukushima, Japan
Temperature 75°F
Humidity 69%
Dew Point 64°F
Wind South at 8 mph
Pressure 29.89 in (Steady)
Conditions Scattered Clouds
Visibility 6.2 miles
UV 3 out of 16
Clouds (FEW) : 2500 ft
Scattered Clouds (SCT) : 4000 ft
Yesterday's Maximum 75°F
Yesterday's Minimum 66°F approx.
Yesterday's Cooling Degree Days 6 approx.
Sunrise4:21 AM JST
Sunset7:05 PM JST
Moon Rise7:38 AM JST
Moon Set9:40 PM JST
Moon PhaseMoon Phase
Waxing Crescent
Raw METARMETAR RJSF 270700Z 19007KT 9999 FEW025 SCT040 BKN/// 24/18 Q1012


Monday
. High: 84° F.
Tuesday
. High: 84° F.
Wednesday
. High: 71° F.
Thursday
. High: 78° F.
Friday
. High: 78° F.
Saturday
. High: 68° F.
Sunday
. High: 75° F.
Monday
. High: 77° F.

Units: English | Metric

Find the Weather for any City, State or Zipcode, or Country:

U.S. State List | Severe Weather | Tropical Storms | Ski Conditions
United States | Canada | Central America | South America | Asia | Europe | Australia | Africa | Islands

Weather Underground

© Copyright 2017
The Weather Company, LLC